Time;durP1;ratioP1;P1;durP2;ratioP2;P2;SDS_P1;SDS_P2;PMS_P1;PMS_P2;Temp;Humidity;BMP_temperature;BMP_pressure;BME280_temperature;BME280_humidity;BME280_pressure;Samples;Min_cycle;Max_cycle;Signal;HPM_P1;HPM_P2
2022/09/09 00:00:53;;;;;;;11.00;9.60;;;;;;;17.50;92.89;98007.33;105230;1281;138837;-67
2022/09/09 00:03:47;;;;;;;10.40;9.30;;;;;;;17.47;92.83;98004.27;105266;1281;25248;-66
2022/09/09 00:06:23;;;;;;;10.50;9.30;;;;;;;17.46;92.95;98011.27;105321;1281;22714;-67
2022/09/09 00:09:19;;;;;;;9.90;8.70;;;;;;;17.46;93.04;98012.94;105371;1281;22550;-67
2022/09/09 00:11:53;;;;;;;13.20;10.20;;;;;;;17.44;92.98;98017.42;105307;1281;24106;-67
2022/09/09 00:14:34;;;;;;;13.00;9.70;;;;;;;17.42;92.98;98016.57;105169;1281;138699;-67
2022/09/09 00:17:09;;;;;;;11.90;9.10;;;;;;;17.41;93.16;98012.47;105140;1285;22566;-66
2022/09/09 00:19:42;;;;;;;10.40;9.10;;;;;;;17.40;93.15;98013.98;105162;1281;138535;-66
2022/09/09 00:22:15;;;;;;;9.60;8.30;;;;;;;17.37;93.11;98014.36;105309;1281;22545;-67
2022/09/09 00:24:50;;;;;;;11.40;9.90;;;;;;;17.34;93.09;98010.23;105206;1281;138792;-66
2022/09/09 00:27:20;;;;;;;10.10;9.10;;;;;;;17.31;93.17;98011.27;105253;1281;22550;-68
2022/09/09 00:29:53;;;;;;;10.00;8.90;;;;;;;17.28;93.16;98008.39;105259;1281;24262;-67
2022/09/09 00:32:21;;;;;;;10.00;9.00;;;;;;;17.25;93.15;98012.77;105238;1281;138691;-66
2022/09/09 00:34:54;;;;;;;12.00;9.50;;;;;;;17.24;93.08;98016.31;105336;1281;22704;-67
2022/09/09 00:37:25;;;;;;;9.80;8.80;;;;;;;17.21;93.18;98020.61;105235;1281;138994;-67
2022/09/09 00:39:57;;;;;;;9.90;8.90;;;;;;;17.20;93.31;98019.23;105416;1284;30244;-66
2022/09/09 00:42:32;;;;;;;10.90;8.60;;;;;;;17.20;93.41;98019.08;103966;1284;1572287;-67
2022/09/09 00:45:24;;;;;;;12.30;9.30;;;;;;;17.20;93.46;98020.63;105060;1284;22580;-66
2022/09/09 00:47:53;;;;;;;9.70;8.60;;;;;;;17.18;93.55;98024.84;105150;1281;25255;-67
2022/09/09 00:50:54;;;;;;;10.30;9.20;;;;;;;17.18;93.48;98027.85;105207;1281;138596;-67
2022/09/09 00:53:38;;;;;;;11.20;9.60;;;;;;;17.18;93.49;98028.79;105300;1281;25464;-66
2022/09/09 00:56:14;;;;;;;10.90;9.70;;;;;;;17.18;93.65;98034.20;105166;1281;138562;-67
2022/09/09 00:59:06;;;;;;;11.60;9.50;;;;;;;17.17;93.38;98035.02;105272;1281;25355;-67
2022/09/09 01:01:35;;;;;;;10.40;8.60;;;;;;;17.15;93.34;98037.16;105190;1281;138657;-66
2022/09/09 01:04:08;;;;;;;13.20;10.60;;;;;;;17.12;93.30;98038.95;105283;1281;22548;-67
2022/09/09 01:06:38;;;;;;;10.40;9.30;;;;;;;17.09;93.39;98037.34;105285;1281;139309;-67
2022/09/09 01:09:23;;;;;;;12.10;10.40;;;;;;;17.06;93.58;98040.04;105347;1281;22531;-67
2022/09/09 01:12:14;;;;;;;13.80;10.90;;;;;;;17.01;93.72;98041.66;105227;1281;22647;-67
2022/09/09 01:14:56;;;;;;;12.20;10.80;;;;;;;16.97;93.80;98043.96;105102;1281;138543;-66
2022/09/09 01:17:27;;;;;;;14.70;10.10;;;;;;;16.94;93.87;98044.23;105183;1284;23966;-67
2022/09/09 01:20:25;;;;;;;12.70;11.00;;;;;;;16.90;94.13;98048.47;105122;1281;138859;-67
2022/09/09 01:23:20;;;;;;;14.30;11.80;;;;;;;16.86;94.19;98054.30;105318;1281;25357;-67
2022/09/09 01:26:12;;;;;;;14.40;11.90;;;;;;;16.82;94.38;98050.91;105168;1281;138605;-66
2022/09/09 01:28:44;;;;;;;13.40;12.00;;;;;;;16.80;94.33;98058.91;105215;1281;22548;-67
2022/09/09 01:31:19;;;;;;;15.30;12.30;;;;;;;16.76;94.38;98057.32;105169;1281;138774;-67
2022/09/09 01:33:47;;;;;;;14.70;12.00;;;;;;;16.74;94.57;98060.32;105305;1281;22556;-67
2022/09/09 01:36:42;;;;;;;14.80;13.30;;;;;;;16.70;94.45;98062.83;105389;1281;25303;-66
2022/09/09 01:39:13;;;;;;;13.40;12.10;;;;;;;16.66;94.48;98061.06;105276;1280;25249;-66
2022/09/09 01:41:40;;;;;;;14.10;12.40;;;;;;;16.63;94.58;98066.66;105321;1281;22724;-67
2022/09/09 01:44:12;;;;;;;14.50;13.00;;;;;;;16.60;94.65;98069.29;105196;1281;138763;-66
2022/09/09 01:46:41;;;;;;;14.50;12.20;;;;;;;16.57;94.82;98075.59;105344;1281;25539;-66
2022/09/09 01:49:14;;;;;;;17.00;12.80;;;;;;;16.55;94.80;98076.83;105153;1281;138751;-66
2022/09/09 01:51:43;;;;;;;16.30;13.80;;;;;;;16.52;94.94;98079.06;105259;1281;22882;-67
2022/09/09 01:54:13;;;;;;;15.10;12.50;;;;;;;16.50;95.20;98081.39;105293;1281;22622;-66
2022/09/09 01:56:46;;;;;;;15.70;14.00;;;;;;;16.48;95.34;98088.39;105179;1281;138782;-66
2022/09/09 01:59:34;;;;;;;16.20;12.80;;;;;;;16.47;95.40;98090.55;105285;1281;23784;-66
2022/09/09 02:02:17;;;;;;;14.30;12.40;;;;;;;16.47;95.48;98090.93;105139;1281;138899;-67
2022/09/09 02:04:56;;;;;;;14.30;12.80;;;;;;;16.46;95.70;98091.98;105269;1281;22645;-66
2022/09/09 02:07:45;;;;;;;16.20;13.70;;;;;;;16.45;95.58;98094.70;105149;1283;138991;-67
2022/09/09 02:10:40;;;;;;;18.00;13.60;;;;;;;16.42;95.64;98093.36;105257;1281;24264;-66
2022/09/09 02:13:16;;;;;;;14.40;12.50;;;;;;;16.39;95.41;98098.17;105093;1281;138809;-66
2022/09/09 02:15:55;;;;;;;15.10;13.50;;;;;;;16.37;95.36;98104.08;105236;1281;25412;-66
2022/09/09 02:18:27;;;;;;;;;;;;;;;16.33;95.25;98105.33;105187;1281;138999;-66
2022/09/09 02:20:58;;;;;;;17.50;14.00;;;;;;;16.29;95.58;98105.38;105310;1281;24262;-67
2022/09/09 02:23:28;;;;;;;15.90;12.80;;;;;;;16.27;95.31;98107.32;105016;1281;24363;-67
2022/09/09 02:25:58;;;;;;;14.60;12.90;;;;;;;16.24;95.26;98112.34;105250;1281;138751;-66
2022/09/09 02:28:32;;;;;;;15.60;14.00;;;;;;;16.22;95.30;98112.81;105290;1281;23882;-66
2022/09/09 02:31:00;;;;;;;14.40;12.90;;;;;;;16.19;95.29;98110.92;105077;1284;139078;-66
2022/09/09 02:33:39;;;;;;;15.80;13.30;;;;;;;16.16;95.15;98112.33;105257;1281;24427;-66
2022/09/09 02:36:09;;;;;;;15.40;13.30;;;;;;;16.13;95.43;98114.83;105197;1281;22679;-66
2022/09/09 02:38:42;;;;;;;15.50;13.50;;;;;;;16.10;95.47;98122.98;105198;1281;138599;-67
2022/09/09 02:41:12;;;;;;;14.50;12.70;;;;;;;16.06;95.24;98123.79;105242;1281;25499;-66
2022/09/09 02:43:40;;;;;;;14.90;12.90;;;;;;;16.04;95.47;98126.16;105156;1281;138978;-66
2022/09/09 02:46:12;;;;;;;16.20;13.60;;;;;;;16.01;95.23;98121.47;105285;1281;22694;-67
2022/09/09 02:48:59;;;;;;;14.40;12.40;;;;;;;16.00;95.43;98127.59;105150;1281;138966;-66
2022/09/09 02:51:56;;;;;;;16.00;13.40;;;;;;;15.97;95.57;98133.38;105226;1281;22556;-67
2022/09/09 02:54:30;;;;;;;16.10;13.40;;;;;;;15.95;95.28;98132.91;105141;1281;138984;-67
2022/09/09 02:57:10;;;;;;;14.60;13.20;;;;;;;15.91;95.15;98137.21;105327;1281;25368;-66
2022/09/09 02:59:39;;;;;;;16.70;13.00;;;;;;;15.88;95.08;98134.77;105294;1281;24305;-66
2022/09/09 03:02:07;;;;;;;14.70;12.70;;;;;;;15.84;94.82;98137.23;105124;1281;138797;-66
2022/09/09 03:04:34;;;;;;;17.40;13.70;;;;;;;15.78;94.97;98141.56;105193;1281;25046;-67
2022/09/09 03:07:03;;;;;;;16.50;14.70;;;;;;;15.72;94.77;98140.03;105149;1281;138924;-66
2022/09/09 03:09:30;;;;;;;18.70;14.60;;;;;;;15.66;94.91;98150.34;105321;1281;22558;-67
2022/09/09 03:11:57;;;;;;;18.10;15.50;;;;;;;15.60;94.89;98148.96;105221;1281;24253;-66
2022/09/09 03:14:25;;;;;;;17.20;15.00;;;;;;;15.56;95.13;98150.91;105169;1281;138940;-66
2022/09/09 03:16:54;;;;;;;17.60;15.80;;;;;;;15.53;95.53;98152.85;105287;1281;22594;-66
2022/09/09 03:19:21;;;;;;;20.10;15.80;;;;;;;15.51;95.82;98149.36;105175;1281;138675;-66
2022/09/09 03:21:49;;;;;;;19.40;16.00;;;;;;;15.50;96.03;98149.86;105299;1281;22559;-69
2022/09/09 03:24:16;;;;;;;19.90;17.50;;;;;;;15.48;96.22;98149.20;105235;1283;22560;-66
2022/09/09 03:26:46;;;;;;;19.70;16.60;;;;;;;15.49;96.24;98148.16;105253;1281;25400;-66
2022/09/09 03:29:17;;;;;;;19.00;16.40;;;;;;;15.50;96.33;98143.77;105283;1281;22630;-66
2022/09/09 03:31:44;;;;;;;21.90;16.20;;;;;;;15.51;96.60;98144.24;105141;1281;138749;-66
2022/09/09 03:34:13;;;;;;;21.20;17.60;;;;;;;15.54;96.48;98148.35;105302;1281;22510;-66
2022/09/09 03:36:41;;;;;;;20.20;16.80;;;;;;;15.56;96.55;98149.59;105163;1281;139350;-66
2022/09/09 03:39:08;;;;;;;20.10;16.50;;;;;;;15.58;96.30;98149.73;105322;1281;25238;-66
2022/09/09 03:41:37;;;;;;;19.20;16.50;;;;;;;15.59;96.36;98147.16;105263;1281;23310;-66
2022/09/09 03:44:04;;;;;;;;;;;;;;;15.60;96.16;98147.04;105202;1281;138767;-66
2022/09/09 03:46:35;;;;;;;22.30;16.00;;;;;;;15.59;96.17;98150.29;105231;1281;24253;-66
2022/09/09 03:49:02;;;;;;;21.20;17.30;;;;;;;15.61;96.10;98154.49;105140;1281;138895;-66
2022/09/09 03:51:30;;;;;;;19.40;16.40;;;;;;;15.62;96.04;98158.34;105188;1281;22564;-66
2022/09/09 03:54:00;;;;;;;18.30;16.00;;;;;;;15.62;95.95;98163.06;105247;1281;22572;-66
2022/09/09 03:56:28;;;;;;;18.20;16.10;;;;;;;15.63;96.12;98169.82;105143;1281;139209;-68
2022/09/09 03:58:56;;;;;;;20.30;16.20;;;;;;;15.64;96.00;98172.77;105320;1281;22586;-66
2022/09/09 04:01:23;;;;;;;18.40;16.10;;;;;;;15.64;95.86;98175.62;105223;1281;139322;-66
2022/09/09 04:03:50;;;;;;;18.40;16.20;;;;;;;15.63;95.96;98175.17;105248;1281;23925;-66
2022/09/09 04:06:19;;;;;;;17.50;15.70;;;;;;;15.62;96.02;98171.73;105155;1281;138963;-69
2022/09/09 04:08:48;;;;;;;18.90;15.90;;;;;;;15.62;96.14;98173.54;105322;1281;23074;-66
2022/09/09 04:11:16;;;;;;;20.40;16.30;;;;;;;15.62;96.20;98175.23;105266;1281;24598;-66
2022/09/09 04:13:45;;;;;;;22.30;15.60;;;;;;;15.61;95.75;98179.75;105177;1281;138801;-66
2022/09/09 04:16:14;;;;;;;16.10;14.40;;;;;;;15.61;95.94;98184.27;105358;1281;22601;-66
2022/09/09 04:18:42;;;;;;;21.80;16.60;;;;;;;15.61;96.16;98182.17;105330;1280;138920;-66
2022/09/09 04:21:10;;;;;;;18.80;15.90;;;;;;;15.61;95.96;98181.35;105291;1280;22564;-66
2022/09/09 04:23:37;;;;;;;19.70;15.40;;;;;;;15.61;96.16;98178.11;105218;1283;24253;-66
2022/09/09 04:26:06;;;;;;;18.10;16.00;;;;;;;15.63;96.55;98179.68;105235;1281;138796;-66
2022/09/09 04:28:35;;;;;;;21.10;16.70;;;;;;;15.64;96.31;98177.82;105287;1280;25302;-66
2022/09/09 04:31:08;;;;;;;19.00;16.30;;;;;;;15.64;96.28;98178.96;105267;1280;138936;-66
2022/09/09 04:33:36;;;;;;;19.50;16.60;;;;;;;15.64;96.18;98172.33;105272;1281;24038;-68
2022/09/09 04:36:03;;;;;;;18.70;16.40;;;;;;;15.65;96.12;98174.02;105321;1280;24240;-68
2022/09/09 04:38:30;;;;;;;22.60;17.20;;;;;;;15.66;96.40;98171.43;105376;1280;138647;-68
2022/09/09 04:40:57;;;;;;;19.90;17.60;;;;;;;15.67;96.34;98173.02;105335;1281;22571;-66
2022/09/09 04:43:25;;;;;;;21.70;17.20;;;;;;;15.69;96.27;98173.33;105267;1280;139137;-68
2022/09/09 04:45:53;;;;;;;25.80;18.50;;;;;;;15.72;96.34;98171.17;105374;1281;22553;-66
2022/09/09 04:48:22;;;;;;;21.40;18.30;;;;;;;15.74;96.32;98172.65;105194;1280;138858;-67
2022/09/09 04:50:56;;;;;;;24.60;18.20;;;;;;;15.77;96.72;98173.58;105311;1280;25296;-66
2022/09/09 04:53:25;;;;;;;23.00;16.80;;;;;;;15.81;96.64;98171.34;105334;1280;24391;-67
2022/09/09 04:56:11;;;;;;;24.40;17.80;;;;;;;15.85;96.62;98177.41;105345;1280;138814;-67
2022/09/09 04:58:43;;;;;;;24.50;18.90;;;;;;;15.88;96.45;98175.09;105333;1281;22643;-67
2022/09/09 05:01:12;;;;;;;23.40;17.10;;;;;;;15.90;96.52;98174.40;105269;1280;138610;-68
2022/09/09 05:03:40;;;;;;;23.20;18.50;;;;;;;15.93;96.76;98179.15;105287;1281;25319;-68
2022/09/09 05:06:15;;;;;;;27.50;18.90;;;;;;;15.99;96.78;98178.20;105333;1281;22538;-68
2022/09/09 05:08:44;;;;;;;26.00;19.30;;;;;;;16.03;96.76;98180.46;105299;1281;25313;-68
2022/09/09 05:11:26;;;;;;;26.20;18.40;;;;;;;16.07;96.72;98183.77;105482;1281;25243;-67
2022/09/09 05:14:01;;;;;;;27.20;18.00;;;;;;;16.11;96.68;98183.23;105330;1281;138690;-67
2022/09/09 05:16:30;;;;;;;24.80;18.60;;;;;;;16.16;96.60;98189.19;105345;1281;26523;-67
2022/09/09 05:18:58;;;;;;;26.70;17.50;;;;;;;16.19;96.32;98186.97;105142;1283;138952;-67
2022/09/09 05:21:28;;;;;;;28.20;17.90;;;;;;;16.22;96.19;98190.23;105408;1281;25232;-67
2022/09/09 05:23:55;;;;;;;24.10;17.10;;;;;;;16.22;96.22;98191.55;105310;1281;21905;-67
2022/09/09 05:26:23;;;;;;;24.90;17.90;;;;;;;16.23;95.96;98190.51;105155;1283;138693;-67
2022/09/09 05:28:52;;;;;;;24.00;17.50;;;;;;;16.23;95.82;98191.77;105344;1281;22564;-67
2022/09/09 05:31:22;;;;;;;25.20;17.30;;;;;;;16.22;95.70;98193.70;105289;1281;138765;-66
2022/09/09 05:33:50;;;;;;;25.10;17.50;;;;;;;16.22;95.91;98197.38;105496;1280;22543;-66
2022/09/09 05:36:21;;;;;;;21.20;17.00;;;;;;;16.18;95.26;98201.26;105324;1281;139347;-68
2022/09/09 05:38:50;;;;;;;27.10;18.40;;;;;;;16.13;95.19;98204.05;105775;1280;22755;-66
2022/09/09 05:41:18;;;;;;;20.40;16.80;;;;;;;16.09;95.13;98204.36;105345;1280;23502;-67
2022/09/09 05:43:48;;;;;;;17.80;15.70;;;;;;;16.07;94.91;98202.84;105611;1280;138675;-66
2022/09/09 05:46:19;;;;;;;20.30;16.40;;;;;;;16.08;95.25;98203.44;105668;1280;24450;-67
2022/09/09 05:48:48;;;;;;;22.10;16.90;;;;;;;16.13;95.38;98206.26;105394;1280;139373;-66
2022/09/09 05:51:18;;;;;;;21.10;16.60;;;;;;;16.16;95.14;98203.91;106012;1280;22540;-67
2022/09/09 05:53:45;;;;;;;21.90;17.70;;;;;;;16.20;95.17;98201.14;105162;1281;22583;-67
2022/09/09 05:56:19;;;;;;;23.60;17.50;;;;;;;16.24;94.84;98206.11;105019;1281;138688;-66
2022/09/09 05:58:46;;;;;;;21.60;17.10;;;;;;;16.27;94.94;98205.52;105904;1281;25248;-66
2022/09/09 06:01:15;;;;;;;26.20;19.50;;;;;;;16.35;95.18;98206.98;105405;1280;138566;-67
2022/09/09 06:03:44;;;;;;;23.30;18.80;;;;;;;16.38;94.65;98213.17;105229;1280;22636;-67
2022/09/09 06:06:17;;;;;;;25.90;19.00;;;;;;;16.43;94.63;98213.69;105330;1280;25261;-66
2022/09/09 06:08:45;;;;;;;26.40;21.30;;;;;;;16.45;94.18;98217.06;105265;1280;23940;-66
2022/09/09 06:11:24;;;;;;;26.10;21.40;;;;;;;16.48;94.21;98214.84;105363;1280;23058;-66
2022/09/09 06:13:53;;;;;;;30.70;20.10;;;;;;;16.53;93.98;98219.40;105189;1280;138700;-67
2022/09/09 06:16:23;;;;;;;29.50;20.30;;;;;;;16.59;93.95;98223.08;105394;1280;25371;-66
2022/09/09 06:18:52;;;;;;;27.20;21.10;;;;;;;16.66;94.17;98226.09;105128;1280;138718;-67
2022/09/09 06:21:22;;;;;;;30.30;21.50;;;;;;;16.73;93.76;98232.73;105405;1280;22537;-66
2022/09/09 06:23:51;;;;;;;28.90;22.00;;;;;;;16.79;93.40;98231.46;105546;1280;25306;-67
2022/09/09 06:26:25;;;;;;;31.20;22.80;;;;;;;16.84;93.28;98230.77;105137;1280;138763;-67
2022/09/09 06:28:55;;;;;;;36.40;23.70;;;;;;;16.90;92.75;98236.48;105916;1280;22550;-67
2022/09/09 06:31:24;;;;;;;30.30;23.40;;;;;;;16.96;92.63;98237.65;105150;1280;138759;-67
2022/09/09 06:33:53;;;;;;;35.40;23.50;;;;;;;16.99;92.15;98237.61;105318;1280;22557;-66
2022/09/09 06:36:23;;;;;;;37.60;24.10;;;;;;;17.03;91.82;98238.43;105268;1280;139357;-66
2022/09/09 06:38:51;;;;;;;33.40;21.60;;;;;;;17.08;91.66;98235.63;105243;1280;22558;-67
2022/09/09 06:41:20;;;;;;;32.20;23.30;;;;;;;17.11;90.81;98236.14;105286;1281;24276;-67
2022/09/09 06:43:48;;;;;;;28.30;21.10;;;;;;;17.13;90.54;98235.91;105305;1281;138547;-66
2022/09/09 06:46:27;;;;;;;26.50;19.60;;;;;;;17.19;90.73;98240.17;105630;1280;25653;-67
2022/09/09 06:48:57;;;;;;;25.60;18.30;;;;;;;17.26;90.36;98243.00;105414;1280;138713;-67
2022/09/09 06:51:29;;;;;;;23.30;19.40;;;;;;;17.32;89.53;98238.92;105380;1281;24243;-67
2022/09/09 06:53:58;;;;;;;24.00;19.30;;;;;;;17.37;89.62;98235.77;105364;1280;25682;-67
2022/09/09 06:56:31;;;;;;;28.40;19.60;;;;;;;17.44;89.21;98237.55;105311;1281;138611;-67
2022/09/09 06:59:03;;;;;;;24.00;18.50;;;;;;;17.52;89.26;98236.02;105469;1280;22748;-68
2022/09/09 07:01:33;;;;;;;20.70;16.90;;;;;;;17.60;88.03;98232.36;105295;1280;138801;-68
2022/09/09 07:04:04;;;;;;;24.30;17.70;;;;;;;17.67;88.01;98235.84;105497;1280;23326;-67
2022/09/09 07:06:35;;;;;;;22.20;16.90;;;;;;;17.75;88.12;98237.28;105324;1280;138653;-68
2022/09/09 07:09:06;;;;;;;25.00;17.10;;;;;;;17.79;87.40;98236.80;105511;1280;22628;-68
2022/09/09 07:11:38;;;;;;;24.10;18.90;;;;;;;17.84;87.40;98233.11;105437;1280;24431;-68
2022/09/09 07:14:05;;;;;;;23.60;18.20;;;;;;;17.82;86.25;98235.30;105328;1280;139033;-67
2022/09/09 07:16:33;;;;;;;24.20;18.80;;;;;;;17.78;86.37;98237.36;105341;1281;22853;-67
2022/09/09 07:19:02;;;;;;;24.50;18.20;;;;;;;17.77;86.28;98234.95;105311;1281;139246;-66
2022/09/09 07:21:31;;;;;;;24.50;18.10;;;;;;;17.74;85.92;98233.61;105396;1281;25575;-69
2022/09/09 07:23:59;;;;;;;24.30;17.50;;;;;;;17.73;85.92;98236.15;105283;1283;22553;-67
2022/09/09 07:26:30;;;;;;;20.60;16.20;;;;;;;17.75;86.27;98232.87;105243;1281;138588;-67
2022/09/09 07:28:58;;;;;;;19.80;16.30;;;;;;;17.75;85.75;98231.45;105466;1281;22534;-67
2022/09/09 07:31:27;;;;;;;23.50;16.90;;;;;;;17.72;85.53;98232.20;105215;1281;138719;-67
2022/09/09 07:33:55;;;;;;;25.10;17.80;;;;;;;17.71;86.05;98229.25;105436;1281;24335;-67
2022/09/09 07:36:25;;;;;;;23.60;17.40;;;;;;;17.74;85.66;98228.45;105575;1280;138895;-68
2022/09/09 07:39:01;;;;;;;18.60;15.40;;;;;;;17.79;85.82;98223.50;105367;1281;26569;-67
2022/09/09 07:41:33;;;;;;;18.70;14.50;;;;;;;17.88;85.88;98224.83;105372;1281;23186;-68
2022/09/09 07:44:26;;;;;;;19.50;14.20;;;;;;;17.96;85.30;98221.85;105269;1281;138673;-67
2022/09/09 07:47:06;;;;;;;18.00;14.50;;;;;;;18.03;84.21;98220.92;105898;1282;23083;-67
2022/09/09 07:49:36;;;;;;;16.20;12.50;;;;;;;18.09;84.35;98222.41;105666;1281;138657;-67
2022/09/09 07:52:05;;;;;;;19.70;13.70;;;;;;;18.17;83.89;98222.57;105750;1280;24092;-67
2022/09/09 07:54:32;;;;;;;14.60;11.50;;;;;;;18.27;84.09;98227.20;105289;1281;139584;-67
2022/09/09 07:57:00;;;;;;;12.80;10.60;;;;;;;18.38;83.89;98226.14;105437;1280;22549;-67
2022/09/09 07:59:29;;;;;;;15.80;10.90;;;;;;;18.50;83.11;98225.01;105558;1280;24421;-67
2022/09/09 08:01:57;;;;;;;12.50;11.20;;;;;;;18.59;82.69;98222.17;105284;1280;139160;-67
2022/09/09 08:04:27;;;;;;;14.10;10.70;;;;;;;18.67;82.36;98224.30;105481;1280;25263;-68
2022/09/09 08:06:57;;;;;;;;;;;;;;;18.80;82.37;98228.70;105416;1280;139251;-68
2022/09/09 08:09:28;;;;;;;11.90;10.20;;;;;;;18.93;81.72;98226.92;105433;1280;25471;-68
2022/09/09 08:11:58;;;;;;;11.10;8.90;;;;;;;19.06;81.40;98227.12;105516;1280;25239;-68
2022/09/09 08:14:26;;;;;;;9.00;8.10;;;;;;;19.21;81.05;98230.25;105461;1281;138157;-68
2022/09/09 08:16:54;;;;;;;7.50;6.80;;;;;;;19.38;80.55;98228.91;105382;1280;22544;-67
2022/09/09 08:19:23;;;;;;;10.10;6.20;;;;;;;19.57;79.17;98228.94;105554;1280;138073;-68
2022/09/09 08:21:50;;;;;;;6.80;6.10;;;;;;;19.77;78.85;98232.17;105941;1280;22567;-68
2022/09/09 08:24:19;;;;;;;7.80;6.90;;;;;;;19.93;77.74;98232.68;106267;1280;138337;-71
2022/09/09 08:26:49;;;;;;;8.60;6.80;;;;;;;20.08;76.66;98239.56;105684;1281;25318;-67
2022/09/09 08:29:18;;;;;;;8.80;6.80;;;;;;;20.19;75.88;98240.81;105819;1280;22749;-67
2022/09/09 08:31:54;;;;;;;6.60;5.90;;;;;;;20.32;75.64;98237.66;105402;1281;138669;-67
2022/09/09 08:34:22;;;;;;;6.10;5.40;;;;;;;20.49;74.53;98241.91;105648;1280;22563;-67
2022/09/09 08:36:51;;;;;;;7.70;5.60;;;;;;;20.58;74.51;98239.66;105485;1280;137788;-67
2022/09/09 08:39:21;;;;;;;7.60;5.70;;;;;;;20.67;74.34;98241.07;105836;1281;25423;-67
2022/09/09 08:42:05;;;;;;;7.90;5.20;;;;;;;20.64;71.97;98237.37;106194;1280;22535;-68
2022/09/09 08:44:37;;;;;;;10.10;5.50;;;;;;;20.62;72.89;98238.27;105963;1280;138156;-68
2022/09/09 08:47:26;;;;;;;8.80;4.70;;;;;;;20.69;72.41;98239.67;106092;1280;24316;-67
2022/09/09 08:50:01;;;;;;;6.60;4.00;;;;;;;20.70;71.69;98243.75;105714;1283;138260;-67
2022/09/09 08:52:39;;;;;;;4.80;4.20;;;;;;;20.82;71.01;98243.55;106031;1280;24234;-68
2022/09/09 08:55:33;;;;;;;7.00;4.30;;;;;;;20.89;70.74;98242.36;105794;1280;138096;-67
2022/09/09 08:58:14;;;;;;;4.80;3.60;;;;;;;20.98;70.31;98239.30;105523;1281;23951;-67
2022/09/09 09:00:59;;;;;;;4.40;3.50;;;;;;;21.06;70.36;98241.24;106010;1280;137777;-68
2022/09/09 09:03:58;;;;;;;4.60;4.00;;;;;;;21.14;68.85;98245.94;106255;1281;24279;-68
2022/09/09 09:06:38;;;;;;;3.70;3.30;;;;;;;21.09;68.76;98248.95;105739;1281;138640;-68
2022/09/09 09:09:15;;;;;;;4.30;3.20;;;;;;;21.23;68.15;98246.08;105747;1281;22553;-67
2022/09/09 09:11:53;;;;;;;5.00;3.00;;;;;;;21.31;68.07;98249.67;105472;1280;22761;-67
2022/09/09 09:14:25;;;;;;;5.00;3.10;;;;;;;21.30;67.37;98250.30;105721;1280;137805;-68
2022/09/09 09:16:58;;;;;;;3.00;2.80;;;;;;;21.42;67.89;98252.75;105686;1280;24257;-67
2022/09/09 09:19:29;;;;;;;3.30;2.70;;;;;;;21.60;67.22;98252.73;105473;1280;137786;-67
2022/09/09 09:22:21;;;;;;;4.50;2.90;;;;;;;21.77;66.72;98248.97;107173;1281;24224;-67
2022/09/09 09:25:10;;;;;;;3.30;2.70;;;;;;;21.99;66.55;98246.48;106449;1280;138208;-67
2022/09/09 09:27:45;;;;;;;;;;;;;;;22.14;64.39;98246.84;105382;1283;22531;-67
2022/09/09 09:30:19;;;;;;;3.40;2.70;;;;;;;22.26;63.99;98247.66;105424;1280;22637;-67
2022/09/09 09:32:57;;;;;;;4.00;2.10;;;;;;;22.47;64.20;98247.27;105370;1280;22611;-67
2022/09/09 09:35:25;;;;;;;2.40;2.10;;;;;;;22.66;63.41;98243.02;105508;1280;23205;-68
2022/09/09 09:37:52;;;;;;;2.50;2.10;;;;;;;22.80;62.73;98245.20;105713;1280;137564;-68
2022/09/09 09:40:21;;;;;;;3.90;2.20;;;;;;;22.92;62.49;98246.27;105384;1281;22635;-67
2022/09/09 09:42:55;;;;;;;3.80;2.20;;;;;;;23.05;62.00;98244.65;105313;1281;137946;-67
2022/09/09 09:45:34;;;;;;;2.50;2.30;;;;;;;23.01;60.30;98240.86;105625;1280;25265;-67
2022/09/09 09:48:05;;;;;;;7.40;3.00;;;;;;;22.90;60.59;98241.37;105347;1283;22566;-67
2022/09/09 09:50:33;;;;;;;4.30;2.10;;;;;;;22.84;60.81;98242.71;105533;1280;138844;-67
2022/09/09 09:53:04;;;;;;;3.50;2.20;;;;;;;22.92;60.56;98240.75;105430;1280;22542;-67
2022/09/09 09:55:35;;;;;;;2.80;1.90;;;;;;;23.01;60.43;98232.75;105433;1280;137585;-67
2022/09/09 09:58:14;;;;;;;7.10;2.30;;;;;;;23.16;60.89;98231.14;105411;1283;25199;-67
2022/09/09 10:00:49;;;;;;;3.00;2.20;;;;;;;23.35;59.66;98233.39;105555;1280;137649;-68
2022/09/09 10:03:26;;;;;;;3.80;1.90;;;;;;;23.46;58.75;98232.98;105466;1280;25296;-67
2022/09/09 10:05:56;;;;;;;2.60;1.80;;;;;;;23.51;57.52;98231.98;107960;1280;23302;-68
2022/09/09 10:08:27;;;;;;;2.30;1.90;;;;;;;23.51;57.59;98230.40;105691;1280;137929;-67
2022/09/09 10:11:20;;;;;;;2.10;1.60;;;;;;;23.62;57.96;98229.54;106444;1280;24393;-67
2022/09/09 10:13:50;;;;;;;1.90;1.30;;;;;;;23.81;57.76;98229.03;105240;1280;137962;-66
2022/09/09 10:16:37;;;;;;;3.30;1.80;;;;;;;23.95;56.81;98226.70;105667;1280;22551;-66
2022/09/09 10:19:12;;;;;;;5.90;1.70;;;;;;;24.09;56.22;98220.46;106184;1280;137597;-67
2022/09/09 10:21:57;;;;;;;1.50;1.40;;;;;;;24.27;56.02;98223.67;105923;1280;22613;-66
2022/09/09 10:24:56;;;;;;;2.70;1.30;;;;;;;24.33;54.93;98224.05;105537;1280;138173;-66
2022/09/09 10:27:35;;;;;;;3.30;1.50;;;;;;;24.44;54.59;98224.85;105205;1286;25408;-66
2022/09/09 10:30:20;;;;;;;2.40;1.40;;;;;;;24.55;54.15;98222.09;105129;1286;24323;-66
2022/09/09 10:33:09;;;;;;;3.00;1.60;;;;;;;24.65;54.29;98221.33;105486;1286;24304;-67
2022/09/09 10:35:47;;;;;;;1.90;1.40;;;;;;;24.77;53.72;98226.75;105566;1286;25375;-67
2022/09/09 10:38:33;;;;;;;1.40;1.30;;;;;;;24.87;52.59;98229.54;104850;1286;137970;-66
2022/09/09 10:41:09;;;;;;;3.20;1.30;;;;;;;24.99;52.81;98228.14;105243;1286;22574;-67
2022/09/09 10:43:46;;;;;;;1.60;1.20;;;;;;;25.06;50.66;98233.05;104904;1286;137996;-67
2022/09/09 10:46:51;;;;;;;2.00;1.30;;;;;;;25.11;51.79;98229.33;104985;1286;22632;-67
2022/09/09 10:49:54;;;;;;;2.50;1.50;;;;;;;25.10;49.88;98234.71;105030;1286;137545;-66
2022/09/09 10:52:41;;;;;;;1.50;1.30;;;;;;;25.08;51.45;98230.59;105400;1286;30232;-66
2022/09/09 10:55:14;;;;;;;1.40;1.10;;;;;;;25.23;51.63;98230.61;105246;1287;137480;-66
2022/09/09 10:57:48;;;;;;;2.80;1.40;;;;;;;25.35;50.43;98231.49;105419;1287;22465;-66
2022/09/09 11:00:21;;;;;;;1.80;1.00;;;;;;;25.51;49.44;98235.44;105478;1286;22610;-66
2022/09/09 11:02:56;;;;;;;1.40;1.30;;;;;;;25.56;47.66;98231.13;105402;1284;31825;-66
2022/09/09 11:05:42;;;;;;;1.10;1.00;;;;;;;25.59;47.64;98228.10;105496;1280;22728;-66
2022/09/09 11:08:18;;;;;;;1.40;1.00;;;;;;;25.69;47.74;98228.11;105443;1281;137644;-67
2022/09/09 11:10:58;;;;;;;2.20;1.20;;;;;;;25.75;47.60;98233.54;105321;1280;22696;-66
2022/09/09 11:13:38;;;;;;;1.60;1.10;;;;;;;25.75;47.33;98232.20;105542;1280;137648;-66
2022/09/09 11:16:27;;;;;;;1.10;1.00;;;;;;;25.60;47.43;98233.80;105689;1280;22513;-67
2022/09/09 11:19:02;;;;;;;1.20;1.10;;;;;;;25.44;47.08;98232.73;105414;1280;138347;-66
2022/09/09 11:21:36;;;;;;;1.60;1.10;;;;;;;25.35;47.25;98224.57;105484;1280;22634;-66
2022/09/09 11:24:10;;;;;;;2.60;1.40;;;;;;;25.27;47.71;98228.84;105354;1280;22639;-66
2022/09/09 11:26:47;;;;;;;1.10;1.00;;;;;;;25.34;47.76;98225.95;105639;1281;137391;-67
2022/09/09 11:30:02;;;;;;;3.40;1.50;;;;;;;25.53;48.71;98233.27;105576;1280;22553;-67
2022/09/09 11:32:48;;;;;;;2.40;1.50;;;;;;;25.65;50.06;98236.10;104633;1288;137825;-64
2022/09/09 11:35:34;;;;;;;2.60;1.30;;;;;;;25.71;49.00;98230.06;104850;1288;22599;-67
2022/09/09 11:38:21;;;;;;;1.90;1.50;;;;;;;25.75;47.96;98227.44;104752;1288;138017;-67
2022/09/09 11:40:55;;;;;;;1.50;1.10;;;;;;;25.65;48.08;98225.27;104360;1288;22636;-66
2022/09/09 11:43:51;;;;;;;1.50;1.40;;;;;;;25.62;46.94;98228.84;104504;1288;137835;-65